sensor_id;sensor_type;location;lat;lon;timestamp;pressure;altitude;pressure_sealevel;temperature
78905;BMP280;68291;49.602;8.722;2023-05-07T00:02:32;99499.53;;;16.57
78905;BMP280;68291;49.602;8.722;2023-05-07T00:05:20;99493.19;;;16.61
78905;BMP280;68291;49.602;8.722;2023-05-07T00:08:14;99498.28;;;16.62
78905;BMP280;68291;49.602;8.722;2023-05-07T00:10:55;99505.25;;;16.62
78905;BMP280;68291;49.602;8.722;2023-05-07T00:13:42;99501.91;;;16.60
78905;BMP280;68291;49.602;8.722;2023-05-07T00:16:14;99506.59;;;16.55
78905;BMP280;68291;49.602;8.722;2023-05-07T00:18:46;99497.59;;;16.48
78905;BMP280;68291;49.602;8.722;2023-05-07T00:21:36;99486.56;;;16.44
78905;BMP280;68291;49.602;8.722;2023-05-07T00:24:17;99487.41;;;16.45
78905;BMP280;68291;49.602;8.722;2023-05-07T00:26:49;99492.78;;;16.42
78905;BMP280;68291;49.602;8.722;2023-05-07T00:29:45;99489.88;;;16.34
78905;BMP280;68291;49.602;8.722;2023-05-07T00:32:34;99487.81;;;16.27
78905;BMP280;68291;49.602;8.722;2023-05-07T00:35:30;99492.84;;;16.17
78905;BMP280;68291;49.602;8.722;2023-05-07T00:38:01;99489.78;;;16.11
78905;BMP280;68291;49.602;8.722;2023-05-07T00:40:58;99485.91;;;16.04
78905;BMP280;68291;49.602;8.722;2023-05-07T00:43:48;99476.16;;;15.95
78905;BMP280;68291;49.602;8.722;2023-05-07T00:46:37;99487.88;;;15.88
78905;BMP280;68291;49.602;8.722;2023-05-07T00:49:15;99482.38;;;15.80
78905;BMP280;68291;49.602;8.722;2023-05-07T00:52:02;99482.38;;;15.80
78905;BMP280;68291;49.602;8.722;2023-05-07T00:54:35;99484.88;;;15.82
78905;BMP280;68291;49.602;8.722;2023-05-07T00:57:45;99481.13;;;15.86
78905;BMP280;68291;49.602;8.722;2023-05-07T01:00:20;99475.72;;;15.89
78905;BMP280;68291;49.602;8.722;2023-05-07T01:02:59;99464.00;;;15.83
78905;BMP280;68291;49.602;8.722;2023-05-07T01:05:30;99474.47;;;15.82
78905;BMP280;68291;49.602;8.722;2023-05-07T01:08:26;99479.91;;;15.79
78905;BMP280;68291;49.602;8.722;2023-05-07T01:11:07;99478.94;;;15.80
78905;BMP280;68291;49.602;8.722;2023-05-07T01:14:15;99475.44;;;15.81
78905;BMP280;68291;49.602;8.722;2023-05-07T01:16:50;99472.94;;;15.79
78905;BMP280;68291;49.602;8.722;2023-05-07T01:19:37;99474.88;;;15.76
78905;BMP280;68291;49.602;8.722;2023-05-07T01:22:32;99473.63;;;15.69
78905;BMP280;68291;49.602;8.722;2023-05-07T01:25:31;99475.72;;;15.64
78905;BMP280;68291;49.602;8.722;2023-05-07T01:28:27;99476.19;;;15.57
78905;BMP280;68291;49.602;8.722;2023-05-07T01:31:09;99460.63;;;15.44
78905;BMP280;68291;49.602;8.722;2023-05-07T01:33:53;99467.16;;;15.38
78905;BMP280;68291;49.602;8.722;2023-05-07T01:36:48;99468.38;;;15.32
78905;BMP280;68291;49.602;8.722;2023-05-07T01:39:46;99466.16;;;15.26
78905;BMP280;68291;49.602;8.722;2023-05-07T01:42:27;99454.31;;;15.22
78905;BMP280;68291;49.602;8.722;2023-05-07T01:45:10;99461.81;;;15.27
78905;BMP280;68291;49.602;8.722;2023-05-07T01:47:45;99452.16;;;15.29
78905;BMP280;68291;49.602;8.722;2023-05-07T01:50:24;99438.75;;;15.22
78905;BMP280;68291;49.602;8.722;2023-05-07T01:53:20;99459.94;;;15.29
78905;BMP280;68291;49.602;8.722;2023-05-07T01:56:01;99459.41;;;15.24
78905;BMP280;68291;49.602;8.722;2023-05-07T01:58:38;99455.66;;;15.15
78905;BMP280;68291;49.602;8.722;2023-05-07T02:01:26;99457.44;;;15.15
78905;BMP280;68291;49.602;8.722;2023-05-07T02:04:33;99462.63;;;15.15
78905;BMP280;68291;49.602;8.722;2023-05-07T02:07:14;99464.25;;;15.16
78905;BMP280;68291;49.602;8.722;2023-05-07T02:09:46;99460.53;;;15.20
78905;BMP280;68291;49.602;8.722;2023-05-07T02:13:01;99457.03;;;15.21
78905;BMP280;68291;49.602;8.722;2023-05-07T02:15:49;99453.59;;;15.20
78905;BMP280;68291;49.602;8.722;2023-05-07T02:18:24;99459.81;;;15.18
78905;BMP280;68291;49.602;8.722;2023-05-07T02:20:56;99456.47;;;15.16
78905;BMP280;68291;49.602;8.722;2023-05-07T02:23:51;99459.19;;;15.14
78905;BMP280;68291;49.602;8.722;2023-05-07T02:26:47;99463.72;;;15.11
78905;BMP280;68291;49.602;8.722;2023-05-07T02:29:28;99459.47;;;15.10
78905;BMP280;68291;49.602;8.722;2023-05-07T02:32:10;99452.59;;;15.09
78905;BMP280;68291;49.602;8.722;2023-05-07T02:34:52;99459.63;;;15.07
78905;BMP280;68291;49.602;8.722;2023-05-07T02:37:33;99468.44;;;15.05
78905;BMP280;68291;49.602;8.722;2023-05-07T02:40:05;99471.13;;;15.03
78905;BMP280;68291;49.602;8.722;2023-05-07T02:42:57;99471.34;;;15.00
78905;BMP280;68291;49.602;8.722;2023-05-07T02:46:09;99464.88;;;14.93
78905;BMP280;68291;49.602;8.722;2023-05-07T02:48:44;99468.09;;;14.97
78905;BMP280;68291;49.602;8.722;2023-05-07T02:51:27;99471.34;;;15.00
78905;BMP280;68291;49.602;8.722;2023-05-07T02:54:02;99468.44;;;15.05
78905;BMP280;68291;49.602;8.722;2023-05-07T02:56:53;99470.75;;;15.09
78905;BMP280;68291;49.602;8.722;2023-05-07T02:59:50;99460.28;;;15.10
78905;BMP280;68291;49.602;8.722;2023-05-07T03:03:12;99461.66;;;15.16
78905;BMP280;68291;49.602;8.722;2023-05-07T03:06:06;99457.78;;;15.23
78905;BMP280;68291;49.602;8.722;2023-05-07T03:08:58;99467.72;;;15.29
78905;BMP280;68291;49.602;8.722;2023-05-07T03:11:39;99465.88;;;15.31
78905;BMP280;68291;49.602;8.722;2023-05-07T03:14:19;99459.03;;;15.30
78905;BMP280;68291;49.602;8.722;2023-05-07T03:16:52;99460.69;;;15.31
78905;BMP280;68291;49.602;8.722;2023-05-07T03:19:47;99457.16;;;15.32
78905;BMP280;68291;49.602;8.722;2023-05-07T03:22:34;99465.25;;;15.27
78905;BMP280;68291;49.602;8.722;2023-05-07T03:25:32;99450.72;;;15.25
78905;BMP280;68291;49.602;8.722;2023-05-07T03:28:23;99451.56;;;15.25
78905;BMP280;68291;49.602;8.722;2023-05-07T03:31:00;99454.97;;;15.26
78905;BMP280;68291;49.602;8.722;2023-05-07T03:33:50;99449.03;;;15.24
78905;BMP280;68291;49.602;8.722;2023-05-07T03:36:54;99454.22;;;15.24
78905;BMP280;68291;49.602;8.722;2023-05-07T03:39:42;99446.09;;;15.16
78905;BMP280;68291;49.602;8.722;2023-05-07T03:42:17;99440.56;;;15.08
78905;BMP280;68291;49.602;8.722;2023-05-07T03:44:51;99439.00;;;15.06
78905;BMP280;68291;49.602;8.722;2023-05-07T03:47:23;99442.81;;;15.00
78905;BMP280;68291;49.602;8.722;2023-05-07T03:50:10;99441.53;;;14.93
78905;BMP280;68291;49.602;8.722;2023-05-07T03:52:49;99452.50;;;14.84
78905;BMP280;68291;49.602;8.722;2023-05-07T03:55:23;99445.31;;;14.75
78905;BMP280;68291;49.602;8.722;2023-05-07T03:58:17;99456.97;;;14.69
78905;BMP280;68291;49.602;8.722;2023-05-07T04:01:09;99458.28;;;14.62
78905;BMP280;68291;49.602;8.722;2023-05-07T04:04:02;99464.22;;;14.64
78905;BMP280;68291;49.602;8.722;2023-05-07T04:06:52;99466.81;;;14.64
78905;BMP280;68291;49.602;8.722;2023-05-07T04:09:53;99465.16;;;14.63
78905;BMP280;68291;49.602;8.722;2023-05-07T04:12:24;99474.50;;;14.65
78905;BMP280;68291;49.602;8.722;2023-05-07T04:15:19;99473.84;;;14.62
78905;BMP280;68291;49.602;8.722;2023-05-07T04:18:02;99476.63;;;14.59
78905;BMP280;68291;49.602;8.722;2023-05-07T04:20:39;99469.75;;;14.58
78905;BMP280;68291;49.602;8.722;2023-05-07T04:23:19;99470.34;;;14.63
78905;BMP280;68291;49.602;8.722;2023-05-07T04:25:53;99472.72;;;14.66
78905;BMP280;68291;49.602;8.722;2023-05-07T04:28:47;99474.19;;;14.70
78905;BMP280;68291;49.602;8.722;2023-05-07T04:31:29;99470.66;;;14.71
78905;BMP280;68291;49.602;8.722;2023-05-07T04:34:24;99476.59;;;14.72
78905;BMP280;68291;49.602;8.722;2023-05-07T04:37:21;99483.25;;;14.76
78905;BMP280;68291;49.602;8.722;2023-05-07T04:39:53;99477.78;;;14.81
78905;BMP280;68291;49.602;8.722;2023-05-07T04:42:57;99470.75;;;14.83
78905;BMP280;68291;49.602;8.722;2023-05-07T04:45:42;99471.84;;;14.93
78905;BMP280;68291;49.602;8.722;2023-05-07T04:48:34;99473.00;;;15.01
78905;BMP280;68291;49.602;8.722;2023-05-07T04:51:24;99477.63;;;15.10
78905;BMP280;68291;49.602;8.722;2023-05-07T04:54:14;99478.91;;;15.17
78905;BMP280;68291;49.602;8.722;2023-05-07T04:56:59;99489.34;;;15.29
78905;BMP280;68291;49.602;8.722;2023-05-07T04:59:38;99481.78;;;15.39
78905;BMP280;68291;49.602;8.722;2023-05-07T05:02:35;99488.75;;;15.50
78905;BMP280;68291;49.602;8.722;2023-05-07T05:05:23;99484.94;;;15.56
78905;BMP280;68291;49.602;8.722;2023-05-07T05:07:59;99481.72;;;15.65
78905;BMP280;68291;49.602;8.722;2023-05-07T05:10:31;99482.81;;;15.75
78905;BMP280;68291;49.602;8.722;2023-05-07T05:13:07;99484.25;;;15.78
78905;BMP280;68291;49.602;8.722;2023-05-07T05:16:18;99486.63;;;15.81
78905;BMP280;68291;49.602;8.722;2023-05-07T05:19:06;99488.63;;;15.90
78905;BMP280;68291;49.602;8.722;2023-05-07T05:21:46;99482.72;;;16.01
78905;BMP280;68291;49.602;8.722;2023-05-07T05:24:26;99482.81;;;16.11
78905;BMP280;68291;49.602;8.722;2023-05-07T05:27:06;99490.75;;;16.22
78905;BMP280;68291;49.602;8.722;2023-05-07T05:30:02;99493.66;;;16.30
78905;BMP280;68291;49.602;8.722;2023-05-07T05:32:59;99490.09;;;16.44
78905;BMP280;68291;49.602;8.722;2023-05-07T05:35:41;99483.22;;;16.55
78905;BMP280;68291;49.602;8.722;2023-05-07T05:38:14;99479.88;;;16.65
78905;BMP280;68291;49.602;8.722;2023-05-07T05:41:03;99485.38;;;16.73
78905;BMP280;68291;49.602;8.722;2023-05-07T05:43:54;99479.28;;;16.85
78905;BMP280;68291;49.602;8.722;2023-05-07T05:46:50;99485.28;;;16.98
78905;BMP280;68291;49.602;8.722;2023-05-07T05:49:37;99482.41;;;17.13
78905;BMP280;68291;49.602;8.722;2023-05-07T05:52:18;99483.44;;;17.23
78905;BMP280;68291;49.602;8.722;2023-05-07T05:55:01;99496.53;;;17.34
78905;BMP280;68291;49.602;8.722;2023-05-07T05:57:36;99482.09;;;17.41
78905;BMP280;68291;49.602;8.722;2023-05-07T06:00:31;99483.09;;;17.50
78905;BMP280;68291;49.602;8.722;2023-05-07T06:03:09;99481.69;;;17.57
78905;BMP280;68291;49.602;8.722;2023-05-07T06:06:01;99477.00;;;17.73
78905;BMP280;68291;49.602;8.722;2023-05-07T06:08:45;99477.84;;;17.84
78905;BMP280;68291;49.602;8.722;2023-05-07T06:11:33;99482.78;;;18.00
78905;BMP280;68291;49.602;8.722;2023-05-07T06:14:14;99483.53;;;18.13
78905;BMP280;68291;49.602;8.722;2023-05-07T06:17:03;99486.88;;;18.25
78905;BMP280;68291;49.602;8.722;2023-05-07T06:19:47;99481.88;;;18.33
78905;BMP280;68291;49.602;8.722;2023-05-07T06:22:43;99479.41;;;18.43
78905;BMP280;68291;49.602;8.722;2023-05-07T06:25:37;99486.50;;;18.52
78905;BMP280;68291;49.602;8.722;2023-05-07T06:28:09;99478.09;;;18.59
78905;BMP280;68291;49.602;8.722;2023-05-07T06:30:43;99482.09;;;18.74
78905;BMP280;68291;49.602;8.722;2023-05-07T06:33:39;99489.44;;;18.90
78905;BMP280;68291;49.602;8.722;2023-05-07T06:36:19;99491.78;;;19.04
78905;BMP280;68291;49.602;8.722;2023-05-07T06:39:16;99481.94;;;19.19
78905;BMP280;68291;49.602;8.722;2023-05-07T06:42:13;99489.09;;;19.37
78905;BMP280;68291;49.602;8.722;2023-05-07T06:45:08;99492.25;;;19.51
78905;BMP280;68291;49.602;8.722;2023-05-07T06:47:50;99490.41;;;19.62
78905;BMP280;68291;49.602;8.722;2023-05-07T06:50:41;99499.28;;;19.71
78905;BMP280;68291;49.602;8.722;2023-05-07T06:53:30;99489.16;;;19.77
78905;BMP280;68291;49.602;8.722;2023-05-07T06:56:33;99487.59;;;19.86
78905;BMP280;68291;49.602;8.722;2023-05-07T06:59:09;99484.69;;;19.99
78905;BMP280;68291;49.602;8.722;2023-05-07T07:01:57;99478.00;;;20.16
78905;BMP280;68291;49.602;8.722;2023-05-07T07:04:41;99473.00;;;20.33
78905;BMP280;68291;49.602;8.722;2023-05-07T07:07:23;99470.59;;;20.50
78905;BMP280;68291;49.602;8.722;2023-05-07T07:10:03;99468.50;;;20.64
78905;BMP280;68291;49.602;8.722;2023-05-07T07:12:54;99475.44;;;20.84
78905;BMP280;68291;49.602;8.722;2023-05-07T07:15:47;99467.75;;;21.01
78905;BMP280;68291;49.602;8.722;2023-05-07T07:18:20;99469.31;;;21.13
78905;BMP280;68291;49.602;8.722;2023-05-07T07:21:04;99472.50;;;21.26
78905;BMP280;68291;49.602;8.722;2023-05-07T07:23:36;99467.81;;;21.29
78905;BMP280;68291;49.602;8.722;2023-05-07T07:26:32;99483.28;;;21.42
78905;BMP280;68291;49.602;8.722;2023-05-07T07:29:28;99481.22;;;21.55
78905;BMP280;68291;49.602;8.722;2023-05-07T07:32:01;99471.28;;;21.67
78905;BMP280;68291;49.602;8.722;2023-05-07T07:34:39;99476.25;;;21.80
78905;BMP280;68291;49.602;8.722;2023-05-07T07:37:24;99466.97;;;21.95
78905;BMP280;68291;49.602;8.722;2023-05-07T07:40:13;99474.09;;;22.11
78905;BMP280;68291;49.602;8.722;2023-05-07T07:42:50;99476.59;;;22.22
78905;BMP280;68291;49.602;8.722;2023-05-07T07:45:45;99480.41;;;22.37
78905;BMP280;68291;49.602;8.722;2023-05-07T07:48:21;99475.81;;;22.48
78905;BMP280;68291;49.602;8.722;2023-05-07T07:51:01;99478.53;;;22.56
78905;BMP280;68291;49.602;8.722;2023-05-07T07:53:57;99485.56;;;22.65
78905;BMP280;68291;49.602;8.722;2023-05-07T07:56:44;99483.03;;;22.73
78905;BMP280;68291;49.602;8.722;2023-05-07T07:59:17;99484.09;;;22.80
78905;BMP280;68291;49.602;8.722;2023-05-07T08:02:16;99491.13;;;22.89
78905;BMP280;68291;49.602;8.722;2023-05-07T08:05:05;99493.97;;;23.04
78905;BMP280;68291;49.602;8.722;2023-05-07T08:07:58;99496.75;;;23.20
78905;BMP280;68291;49.602;8.722;2023-05-07T08:11:01;99493.25;;;23.29
78905;BMP280;68291;49.602;8.722;2023-05-07T08:13:55;99493.34;;;23.37
78905;BMP280;68291;49.602;8.722;2023-05-07T08:16:35;99491.75;;;23.44
78905;BMP280;68291;49.602;8.722;2023-05-07T08:19:11;99492.75;;;23.43
78905;BMP280;68291;49.602;8.722;2023-05-07T08:21:52;99494.47;;;23.35
78905;BMP280;68291;49.602;8.722;2023-05-07T08:24:25;99492.41;;;23.29
78905;BMP280;68291;49.602;8.722;2023-05-07T08:27:07;99498.50;;;23.29
78905;BMP280;68291;49.602;8.722;2023-05-07T08:30:03;99496.22;;;23.34
78905;BMP280;68291;49.602;8.722;2023-05-07T08:32:50;99496.22;;;23.34
78905;BMP280;68291;49.602;8.722;2023-05-07T08:36:15;99500.09;;;23.39
78905;BMP280;68291;49.602;8.722;2023-05-07T08:39:09;99506.38;;;23.46
78905;BMP280;68291;49.602;8.722;2023-05-07T08:41:56;99508.88;;;23.48
78905;BMP280;68291;49.602;8.722;2023-05-07T08:44:34;99509.84;;;23.47
78905;BMP280;68291;49.602;8.722;2023-05-07T08:47:18;99509.84;;;23.47
78905;BMP280;68291;49.602;8.722;2023-05-07T08:50:03;99514.81;;;23.50
78905;BMP280;68291;49.602;8.722;2023-05-07T08:52:55;99524.59;;;23.57
78905;BMP280;68291;49.602;8.722;2023-05-07T08:55:34;99506.44;;;23.64
78905;BMP280;68291;49.602;8.722;2023-05-07T08:58:29;99517.38;;;23.76
78905;BMP280;68291;49.602;8.722;2023-05-07T09:01:24;99526.31;;;23.83
78905;BMP280;68291;49.602;8.722;2023-05-07T09:04:07;99513.91;;;23.93
78905;BMP280;68291;49.602;8.722;2023-05-07T09:06:55;99518.41;;;24.01
78905;BMP280;68291;49.602;8.722;2023-05-07T09:09:58;99518.78;;;24.06
78905;BMP280;68291;49.602;8.722;2023-05-07T09:12:51;99511.63;;;24.15
78905;BMP280;68291;49.602;8.722;2023-05-07T09:15:38;99510.94;;;24.31
78905;BMP280;68291;49.602;8.722;2023-05-07T09:18:31;99504.94;;;24.46
78905;BMP280;68291;49.602;8.722;2023-05-07T09:21:16;99507.69;;;24.62
78905;BMP280;68291;49.602;8.722;2023-05-07T09:23:53;99506.25;;;24.75
78905;BMP280;68291;49.602;8.722;2023-05-07T09:26:42;99498.88;;;24.78
78905;BMP280;68291;49.602;8.722;2023-05-07T09:29:29;99504.28;;;24.77
78905;BMP280;68291;49.602;8.722;2023-05-07T09:32:09;99493.41;;;24.80
78905;BMP280;68291;49.602;8.722;2023-05-07T09:34:41;99485.53;;;24.80
78905;BMP280;68291;49.602;8.722;2023-05-07T09:37:36;99501.50;;;24.78
78905;BMP280;68291;49.602;8.722;2023-05-07T09:40:32;99500.97;;;24.75
78905;BMP280;68291;49.602;8.722;2023-05-07T09:43:19;99494.75;;;24.84
78905;BMP280;68291;49.602;8.722;2023-05-07T09:46:14;99491.88;;;24.95
78905;BMP280;68291;49.602;8.722;2023-05-07T09:49:00;99490.63;;;25.14
78905;BMP280;68291;49.602;8.722;2023-05-07T09:52:02;99482.09;;;25.28
78905;BMP280;68291;49.602;8.722;2023-05-07T09:54:41;99489.38;;;25.50
78905;BMP280;68291;49.602;8.722;2023-05-07T09:57:19;99481.84;;;25.63
78905;BMP280;68291;49.602;8.722;2023-05-07T10:00:14;99457.28;;;25.70
78905;BMP280;68291;49.602;8.722;2023-05-07T10:02:52;99478.88;;;25.97
78905;BMP280;68291;49.602;8.722;2023-05-07T10:05:46;99481.69;;;26.12
78905;BMP280;68291;49.602;8.722;2023-05-07T10:08:23;99476.75;;;26.24
78905;BMP280;68291;49.602;8.722;2023-05-07T10:11:01;99481.97;;;26.32
78905;BMP280;68291;49.602;8.722;2023-05-07T10:13:56;99480.47;;;26.46
78905;BMP280;68291;49.602;8.722;2023-05-07T10:17:17;99475.53;;;26.43
78905;BMP280;68291;49.602;8.722;2023-05-07T10:20:16;99482.78;;;26.41
78905;BMP280;68291;49.602;8.722;2023-05-07T10:22:58;99485.94;;;26.36
78905;BMP280;68291;49.602;8.722;2023-05-07T10:25:37;99489.38;;;26.45
78905;BMP280;68291;49.602;8.722;2023-05-07T10:28:17;99486.72;;;26.52
78905;BMP280;68291;49.602;8.722;2023-05-07T10:31:34;99486.72;;;26.52
78905;BMP280;68291;49.602;8.722;2023-05-07T10:34:21;99477.44;;;26.56
78905;BMP280;68291;49.602;8.722;2023-05-07T10:37:18;99480.72;;;26.66
78905;BMP280;68291;49.602;8.722;2023-05-07T10:39:49;99476.41;;;26.73
78905;BMP280;68291;49.602;8.722;2023-05-07T10:42:23;99479.41;;;26.70
78905;BMP280;68291;49.602;8.722;2023-05-07T10:45:13;99473.75;;;26.73
78905;BMP280;68291;49.602;8.722;2023-05-07T10:48:10;99470.81;;;26.76
78905;BMP280;68291;49.602;8.722;2023-05-07T10:51:25;99467.38;;;26.68
78905;BMP280;68291;49.602;8.722;2023-05-07T10:54:22;99474.94;;;26.79
78905;BMP280;68291;49.602;8.722;2023-05-07T10:57:34;99472.22;;;26.94
78905;BMP280;68291;49.602;8.722;2023-05-07T11:00:43;99463.38;;;27.10
78905;BMP280;68291;49.602;8.722;2023-05-07T11:03:31;99465.31;;;27.23
78905;BMP280;68291;49.602;8.722;2023-05-07T11:06:28;99468.22;;;27.28
78905;BMP280;68291;49.602;8.722;2023-05-07T11:09:23;99455.81;;;27.29
78905;BMP280;68291;49.602;8.722;2023-05-07T11:12:16;99460.59;;;27.33
78905;BMP280;68291;49.602;8.722;2023-05-07T11:14:58;99462.56;;;27.39
78905;BMP280;68291;49.602;8.722;2023-05-07T11:17:56;99460.06;;;27.38
78905;BMP280;68291;49.602;8.722;2023-05-07T11:20:56;99455.28;;;27.41
78905;BMP280;68291;49.602;8.722;2023-05-07T11:24:04;99450.31;;;27.38
78905;BMP280;68291;49.602;8.722;2023-05-07T11:26:49;99444.38;;;27.36
78905;BMP280;68291;49.602;8.722;2023-05-07T11:29:32;99444.72;;;27.41
78905;BMP280;68291;49.602;8.722;2023-05-07T11:32:13;99446.56;;;27.55
78905;BMP280;68291;49.602;8.722;2023-05-07T11:35:04;99437.50;;;27.72
78905;BMP280;68291;49.602;8.722;2023-05-07T11:37:49;99437.63;;;27.78
78905;BMP280;68291;49.602;8.722;2023-05-07T11:40:49;99436.31;;;27.96
78905;BMP280;68291;49.602;8.722;2023-05-07T11:44:00;99434.63;;;28.18
78905;BMP280;68291;49.602;8.722;2023-05-07T11:46:44;99439.00;;;28.25
78905;BMP280;68291;49.602;8.722;2023-05-07T11:49:37;99428.78;;;28.36
78905;BMP280;68291;49.602;8.722;2023-05-07T11:52:26;99429.69;;;28.43
78905;BMP280;68291;49.602;8.722;2023-05-07T11:55:12;99418.75;;;28.46
78905;BMP280;68291;49.602;8.722;2023-05-07T11:57:56;99423.22;;;28.46
78905;BMP280;68291;49.602;8.722;2023-05-07T12:00:33;99421.81;;;28.50
78905;BMP280;68291;49.602;8.722;2023-05-07T12:03:22;99422.66;;;28.64
78905;BMP280;68291;49.602;8.722;2023-05-07T12:06:01;99422.34;;;28.88
78905;BMP280;68291;49.602;8.722;2023-05-07T12:08:36;99419.94;;;29.07
78905;BMP280;68291;49.602;8.722;2023-05-07T12:11:28;99417.53;;;29.27
78905;BMP280;68291;49.602;8.722;2023-05-07T12:14:20;99414.00;;;29.40
78905;BMP280;68291;49.602;8.722;2023-05-07T12:17:13;99415.13;;;29.52
78905;BMP280;68291;49.602;8.722;2023-05-07T12:20:00;99409.06;;;29.58
78905;BMP280;68291;49.602;8.722;2023-05-07T12:22:44;99410.31;;;29.62
78905;BMP280;68291;49.602;8.722;2023-05-07T12:25:30;99398.59;;;29.71
78905;BMP280;68291;49.602;8.722;2023-05-07T12:28:19;99409.31;;;29.84
78905;BMP280;68291;49.602;8.722;2023-05-07T12:31:07;99401.44;;;29.97
78905;BMP280;68291;49.602;8.722;2023-05-07T12:34:00;99400.72;;;30.09
78905;BMP280;68291;49.602;8.722;2023-05-07T12:36:44;99404.25;;;30.16
78905;BMP280;68291;49.602;8.722;2023-05-07T12:39:20;99396.63;;;30.13
78905;BMP280;68291;49.602;8.722;2023-05-07T12:41:57;99394.75;;;30.00
78905;BMP280;68291;49.602;8.722;2023-05-07T12:44:47;99402.44;;;29.96
78905;BMP280;68291;49.602;8.722;2023-05-07T12:47:50;99393.13;;;30.06
78905;BMP280;68291;49.602;8.722;2023-05-07T12:50:36;99399.22;;;30.27
78905;BMP280;68291;49.602;8.722;2023-05-07T12:53:33;99400.16;;;30.47
78905;BMP280;68291;49.602;8.722;2023-05-07T12:56:16;99387.25;;;30.90
78905;BMP280;68291;49.602;8.722;2023-05-07T12:58:58;99373.28;;;31.47
78905;BMP280;68291;49.602;8.722;2023-05-07T13:01:39;99379.88;;;31.90
78905;BMP280;68291;49.602;8.722;2023-05-07T13:04:15;99384.09;;;32.23
78905;BMP280;68291;49.602;8.722;2023-05-07T13:07:02;99379.25;;;32.82
78905;BMP280;68291;49.602;8.722;2023-05-07T13:09:51;99369.63;;;33.12
78905;BMP280;68291;49.602;8.722;2023-05-07T13:12:44;99374.97;;;33.12
78905;BMP280;68291;49.602;8.722;2023-05-07T13:15:17;99377.97;;;32.91
78905;BMP280;68291;49.602;8.722;2023-05-07T13:18:04;99379.50;;;32.62
78905;BMP280;68291;49.602;8.722;2023-05-07T13:21:08;99374.47;;;32.28
78905;BMP280;68291;49.602;8.722;2023-05-07T13:24:00;99375.78;;;31.94
78905;BMP280;68291;49.602;8.722;2023-05-07T13:26:42;99379.06;;;31.83
78905;BMP280;68291;49.602;8.722;2023-05-07T13:29:29;99377.84;;;31.85
78905;BMP280;68291;49.602;8.722;2023-05-07T13:32:20;99361.84;;;31.73
78905;BMP280;68291;49.602;8.722;2023-05-07T13:35:00;99359.78;;;31.55
78905;BMP280;68291;49.602;8.722;2023-05-07T13:37:44;99372.88;;;31.50
78905;BMP280;68291;49.602;8.722;2023-05-07T13:40:30;99365.28;;;31.35
78905;BMP280;68291;49.602;8.722;2023-05-07T13:43:25;99374.84;;;31.10
78905;BMP280;68291;49.602;8.722;2023-05-07T13:46:07;99376.41;;;30.85
78905;BMP280;68291;49.602;8.722;2023-05-07T13:48:47;99368.94;;;30.62
78905;BMP280;68291;49.602;8.722;2023-05-07T13:51:43;99361.28;;;30.39
78905;BMP280;68291;49.602;8.722;2023-05-07T13:54:24;99346.66;;;30.23
78905;BMP280;68291;49.602;8.722;2023-05-07T13:57:10;99361.25;;;30.06
78905;BMP280;68291;49.602;8.722;2023-05-07T13:59:56;99349.69;;;29.86
78905;BMP280;68291;49.602;8.722;2023-05-07T14:02:42;99353.19;;;29.66
78905;BMP280;68291;49.602;8.722;2023-05-07T14:05:14;99361.19;;;29.45
78905;BMP280;68291;49.602;8.722;2023-05-07T14:08:09;99354.38;;;29.16
78905;BMP280;68291;49.602;8.722;2023-05-07T14:11:05;99355.28;;;28.88
78905;BMP280;68291;49.602;8.722;2023-05-07T14:13:40;99353.03;;;28.70
78905;BMP280;68291;49.602;8.722;2023-05-07T14:16:25;99351.31;;;28.49
78905;BMP280;68291;49.602;8.722;2023-05-07T14:18:57;99348.78;;;28.26
78905;BMP280;68291;49.602;8.722;2023-05-07T14:21:46;99352.97;;;28.07
78905;BMP280;68291;49.602;8.722;2023-05-07T14:24:36;99360.16;;;27.84
78905;BMP280;68291;49.602;8.722;2023-05-07T14:27:59;99360.56;;;27.59
78905;BMP280;68291;49.602;8.722;2023-05-07T14:30:52;99356.41;;;27.42
78905;BMP280;68291;49.602;8.722;2023-05-07T14:33:42;99352.78;;;27.21
78905;BMP280;68291;49.602;8.722;2023-05-07T14:36:34;99368.44;;;27.00
78905;BMP280;68291;49.602;8.722;2023-05-07T14:39:25;99376.50;;;26.85
78905;BMP280;68291;49.602;8.722;2023-05-07T14:42:24;99380.69;;;26.63
78905;BMP280;68291;49.602;8.722;2023-05-07T14:45:23;99395.47;;;26.42
78905;BMP280;68291;49.602;8.722;2023-05-07T14:48:13;99408.41;;;26.21
78905;BMP280;68291;49.602;8.722;2023-05-07T14:51:11;99432.53;;;25.95
78905;BMP280;68291;49.602;8.722;2023-05-07T14:54:00;99439.81;;;25.61
78905;BMP280;68291;49.602;8.722;2023-05-07T14:56:53;99477.59;;;25.05
78905;BMP280;68291;49.602;8.722;2023-05-07T14:59:51;99492.94;;;24.01
78905;BMP280;68291;49.602;8.722;2023-05-07T15:03:35;99556.75;;;22.98
78905;BMP280;68291;49.602;8.722;2023-05-07T15:06:36;99556.78;;;22.43
78905;BMP280;68291;49.602;8.722;2023-05-07T15:09:34;99564.41;;;21.81
78905;BMP280;68291;49.602;8.722;2023-05-07T15:13:03;99570.69;;;20.63
78905;BMP280;68291;49.602;8.722;2023-05-07T15:16:33;99587.03;;;19.73
78905;BMP280;68291;49.602;8.722;2023-05-07T15:19:54;99593.56;;;19.15
78905;BMP280;68291;49.602;8.722;2023-05-07T15:22:45;99617.41;;;18.89
78905;BMP280;68291;49.602;8.722;2023-05-07T15:25:38;99643.34;;;18.58
78905;BMP280;68291;49.602;8.722;2023-05-07T15:28:30;99632.56;;;18.17
78905;BMP280;68291;49.602;8.722;2023-05-07T15:31:27;99625.31;;;17.87
78905;BMP280;68291;49.602;8.722;2023-05-07T15:34:17;99608.84;;;17.63
78905;BMP280;68291;49.602;8.722;2023-05-07T15:37:28;99613.72;;;17.45
78905;BMP280;68291;49.602;8.722;2023-05-07T15:40:21;99646.91;;;17.53
78905;BMP280;68291;49.602;8.722;2023-05-07T15:43:16;99654.28;;;17.59
78905;BMP280;68291;49.602;8.722;2023-05-07T15:46:07;99644.47;;;17.63
78905;BMP280;68291;49.602;8.722;2023-05-07T15:49:10;99637.22;;;17.55
78905;BMP280;68291;49.602;8.722;2023-05-07T15:52:04;99638.47;;;17.50
78905;BMP280;68291;49.602;8.722;2023-05-07T15:55:11;99661.56;;;17.54
78905;BMP280;68291;49.602;8.722;2023-05-07T15:58:07;99667.19;;;17.61
78905;BMP280;68291;49.602;8.722;2023-05-07T16:00:58;99662.16;;;17.70
78905;BMP280;68291;49.602;8.722;2023-05-07T16:03:53;99660.78;;;17.77
78905;BMP280;68291;49.602;8.722;2023-05-07T16:06:55;99665.41;;;17.84
78905;BMP280;68291;49.602;8.722;2023-05-07T16:09:50;99665.81;;;17.91
78905;BMP280;68291;49.602;8.722;2023-05-07T16:12:45;99653.50;;;17.93